North Miami, FL (33161)

10:49 PM EDT on July 27, 2015 (GMT -0400)
North Miami Beach FIU | | Change Station
CLOSE
Current Station
Personal Weather Station
Location: North Miami Beach, FL
Elevation: 39 ft
Nearby Weather Stations

Elev 39 ft 25.91 °N, 80.14 °W | Updated 3 seconds ago

Partly Cloudy
Partly Cloudy
83.5 °F
Feels Like 92 °F
N
2.0
Wind Variable Wind from West
Gusts 4.0 mph

Today
High -- | Low -- °F
--% Chance of Precip.
Yesterday
High -- | Low -- °F
Precip. -- in
6:44 AM 8:09 PM
Waxing Gibbous, 86% visible
Pressure 30.02 in
Visibility 10.0 miles
Clouds Clear
Heat Index 92 °F
Dew Point 76 °F
Humidity 77%
Rainfall 0.00 in
Snow Depth Not available.
UV 0 out of 12
Pollen 2.40 out of 12
Air Quality Not available.
Flu Activity Not available.
METAR KOPF 280153Z 23006KT 10SM CLR 29/23 A3001 RMK AO2 SLP164 T02890233

More Conditions Fewer Conditions

Pressure 30.02 in
Visibility 10.0 miles
Clouds Clear
Heat Index 92 °F
Dew Point 76 °F
Humidity 77%
Rainfall 0.00 in
Snow Depth Not available.
UV 0 out of 12
Pollen 2.40 out of 12
Air Quality Not available.
Flu Activity Not available.
METAR KOPF 280153Z 23006KT 10SM CLR 29/23 A3001 RMK AO2 SLP164 T02890233

More Conditions Fewer Conditions

10-Day Weather Forecast

×

Almanac

Astronomy

Jul. 27, 2015 Rise Set
Actual Time
Civil Twilight
Nautical Twilight
Astronomical Twilight
Moon
Length of Visible Light
Length of Day
Tomorrow will be .
, % of the Moon is Illuminated

Today's Extremes

State Highs State Lows

Community

WunderPhotos

Upload Photos

1,841,777 photos uploaded!

WunderBlogs® & News

Nearby

Air Quality

  Air Quality AQ Index Pollutant
Not available.

Snow Depth

Station Depth Elevation

Earthquake Activity

City Distance Mag. Time & Date
Minimum magnitude displayed is 2.5.

Coastal Water Temperatures

Place Temperature

Stations

Nearby Weather Stations

Station Location Temp. Windchill Dew Point Humidity Wind Precip. Elev Updated Type